createdAt,value
2018-12-26T00:00:29.939Z,-464.22
2018-12-26T00:01:29.941Z,-467.54
2018-12-26T00:02:29.950Z,-463.34
2018-12-26T00:03:30.068Z,-467.34
2018-12-26T00:04:30.178Z,-467.77
2018-12-26T00:05:30.275Z,-463.97
2018-12-26T00:06:30.361Z,-467.35
2018-12-26T00:07:30.440Z,-468.94
2018-12-26T00:08:30.578Z,-464.55
2018-12-26T00:09:32.008Z,-465.35
2018-12-26T00:10:30.706Z,-463.47
2018-12-26T00:11:30.814Z,-466.73
2018-12-26T00:12:30.894Z,-464.48
2018-12-26T00:13:30.995Z,-467.45
2018-12-26T00:14:31.093Z,-464.28
2018-12-26T00:15:31.186Z,-466.88
2018-12-26T00:16:31.344Z,-464.95
2018-12-26T00:17:31.376Z,-463.34
2018-12-26T00:18:31.451Z,-466.32
2018-12-26T00:19:31.663Z,-466.69
2018-12-26T00:20:31.636Z,-465.61
2018-12-26T00:21:31.759Z,-444.19
2018-12-26T00:22:31.859Z,-444.95
2018-12-26T00:23:31.922Z,-468.51
2018-12-26T00:24:32.093Z,-466.61
2018-12-26T00:25:32.118Z,-465.99
2018-12-26T00:26:32.220Z,-466.03
2018-12-26T00:27:32.303Z,-465.05
2018-12-26T00:28:32.385Z,-467.50
2018-12-26T00:29:32.507Z,-464.58
2018-12-26T00:30:32.574Z,-466.57
2018-12-26T00:31:32.668Z,-462.02
2018-12-26T00:32:32.784Z,-465.40
2018-12-26T00:33:32.986Z,-465.02
2018-12-26T00:34:32.974Z,-465.44
2018-12-26T00:35:33.023Z,-464.33
2018-12-26T00:36:33.127Z,-466.54
2018-12-26T00:37:33.227Z,-468.11
2018-12-26T00:38:33.317Z,-464.09
2018-12-26T00:39:33.437Z,-466.90
2018-12-26T00:40:33.502Z,-465.05
2018-12-26T00:41:33.662Z,-464.67
2018-12-26T00:42:33.678Z,-465.06
2018-12-26T00:43:33.769Z,-466.80
2018-12-26T00:44:33.911Z,-464.23
2018-12-26T00:45:33.958Z,-464.44
2018-12-26T00:46:34.056Z,-466.67
2018-12-26T00:47:34.155Z,-462.94
2018-12-26T00:48:34.238Z,-463.17
2018-12-26T00:49:34.429Z,-463.52
2018-12-26T00:50:34.409Z,-465.28
2018-12-26T00:51:34.737Z,-461.85
2018-12-26T00:52:34.607Z,-459.65
2018-12-26T00:53:34.683Z,-463.14
2018-12-26T00:54:34.801Z,-465.41
2018-12-26T00:55:34.877Z,-463.56
2018-12-26T00:56:34.969Z,-463.08
2018-12-26T00:57:35.132Z,-460.80
2018-12-26T00:58:35.122Z,-460.92
2018-12-26T00:59:35.252Z,-460.96
2018-12-26T01:00:35.323Z,-457.14
2018-12-26T01:01:35.419Z,-460.26
2018-12-26T01:02:35.555Z,-462.16
2018-12-26T01:03:35.630Z,-458.56
2018-12-26T01:04:35.724Z,-458.44
2018-12-26T01:05:35.936Z,-456.48
2018-12-26T01:06:35.990Z,-455.26
2018-12-26T01:07:36.071Z,-459.48
2018-12-26T01:08:36.137Z,-463.38
2018-12-26T01:09:36.232Z,-457.44
2018-12-26T01:10:36.351Z,-462.87
2018-12-26T01:11:36.434Z,-460.47
2018-12-26T01:12:36.571Z,-455.57
2018-12-26T01:13:36.628Z,-456.66
2018-12-26T01:14:36.833Z,-456.54
2018-12-26T01:15:36.802Z,-457.93
2018-12-26T01:16:36.893Z,-460.11
2018-12-26T01:17:37.020Z,-460.20
2018-12-26T01:18:37.081Z,-457.14
2018-12-26T01:19:37.187Z,-456.83
2018-12-26T01:20:37.254Z,-457.69
2018-12-26T01:21:37.352Z,-457.61
2018-12-26T01:22:37.601Z,-454.12
2018-12-26T01:23:37.544Z,-454.59
2018-12-26T01:24:37.668Z,-460.80
2018-12-26T01:25:37.749Z,-459.37
2018-12-26T01:26:37.831Z,-456.29
2018-12-26T01:27:37.969Z,-461.95
2018-12-26T01:28:38.020Z,-462.22
2018-12-26T01:29:38.131Z,-461.67
2018-12-26T01:30:38.256Z,-465.17
2018-12-26T01:31:38.264Z,-461.57
2018-12-26T01:32:38.404Z,-466.51
2018-12-26T01:33:38.472Z,-464.86
2018-12-26T01:34:38.583Z,-459.99
2018-12-26T01:35:38.683Z,-460.77
2018-12-26T01:36:38.749Z,-461.41
2018-12-26T01:37:38.846Z,-463.83
2018-12-26T01:38:38.988Z,-462.48
2018-12-26T01:39:39.039Z,-461.61
2018-12-26T01:40:39.147Z,-464.45
2018-12-26T01:41:39.218Z,-460.35
2018-12-26T01:42:39.336Z,-460.37
2018-12-26T01:43:39.416Z,-461.01
2018-12-26T01:44:39.522Z,-461.10
2018-12-26T01:45:39.597Z,-463.35
2018-12-26T01:46:39.706Z,-459.60
2018-12-26T01:47:39.876Z,-460.56
2018-12-26T01:48:39.916Z,-460.84
2018-12-26T01:49:40.016Z,-461.60
2018-12-26T01:50:40.094Z,-466.60
2018-12-26T01:51:40.186Z,-464.60
2018-12-26T01:52:40.306Z,-462.04
2018-12-26T01:53:40.402Z,-463.83
2018-12-26T01:54:40.476Z,-466.21
2018-12-26T01:55:40.696Z,-463.23
2018-12-26T01:57:44.990Z,-458.69
2018-12-26T01:58:40.871Z,-459.11
2018-12-26T01:59:40.942Z,-460.72
2018-12-26T02:00:41.027Z,-459.91
2018-12-26T02:01:41.138Z,-458.38
2018-12-26T02:02:41.252Z,-460.29
2018-12-26T02:03:41.541Z,-459.21
2018-12-26T02:04:41.421Z,-461.08
2018-12-26T02:05:41.514Z,-458.21
2018-12-26T02:06:41.622Z,-461.03
2018-12-26T02:07:41.733Z,-457.74
2018-12-26T02:08:41.818Z,-455.93
2018-12-26T02:09:41.903Z,-457.66
2018-12-26T02:10:41.996Z,-456.04
2018-12-26T02:11:42.135Z,-458.02
2018-12-26T02:12:42.185Z,-461.32
2018-12-26T02:13:42.269Z,-462.01
2018-12-26T02:14:42.360Z,-460.33
2018-12-26T02:15:42.472Z,-458.44
2018-12-26T02:16:42.550Z,-460.23
2018-12-26T02:17:42.681Z,-463.77
2018-12-26T02:18:42.768Z,-460.94
2018-12-26T02:19:42.997Z,-466.48
2018-12-26T02:20:42.949Z,-458.93
2018-12-26T02:21:43.062Z,-461.86
2018-12-26T02:22:43.148Z,-463.30
2018-12-26T02:23:43.274Z,-460.96
2018-12-26T02:24:43.338Z,-462.04
2018-12-26T02:25:43.450Z,-463.10
2018-12-26T02:26:43.540Z,-465.62
2018-12-26T02:27:43.940Z,-465.91
2018-12-26T02:28:43.813Z,-463.33
2018-12-26T02:29:43.806Z,-466.20
2018-12-26T02:30:43.913Z,-462.95
2018-12-26T02:31:43.988Z,-461.42
2018-12-26T02:32:44.102Z,-462.67
2018-12-26T02:33:44.186Z,-459.89
2018-12-26T02:34:44.271Z,-458.94
2018-12-26T02:35:44.398Z,-464.58
2018-12-26T02:36:44.624Z,-462.82
2018-12-26T02:37:44.617Z,-465.17
2018-12-26T02:38:44.695Z,-465.13
2018-12-26T02:39:44.776Z,-464.34
2018-12-26T02:40:44.902Z,-457.59
2018-12-26T02:41:44.982Z,-457.55
2018-12-26T02:42:45.101Z,-459.22
2018-12-26T02:43:45.201Z,-461.53
2018-12-26T02:44:45.367Z,-459.32
2018-12-26T02:45:45.365Z,-454.99
2018-12-26T02:46:45.444Z,-459.65
2018-12-26T02:47:45.553Z,-456.45
2018-12-26T02:48:45.631Z,-462.27
2018-12-26T02:49:45.706Z,-462.25
2018-12-26T02:50:45.819Z,-459.64
2018-12-26T02:51:45.911Z,-461.88
2018-12-26T02:52:46.083Z,-461.99
2018-12-26T02:53:46.107Z,-462.21
2018-12-26T02:54:46.178Z,-464.09
2018-12-26T02:55:46.272Z,-460.98
2018-12-26T02:56:49.029Z,-462.22
2018-12-26T02:57:46.486Z,-466.51
2018-12-26T02:58:46.571Z,-462.58
2018-12-26T02:59:46.658Z,-466.46
2018-12-26T03:00:46.844Z,-467.89
2018-12-26T03:01:46.853Z,-464.16
2018-12-26T03:02:46.996Z,-465.40
2018-12-26T03:03:47.070Z,-466.74
2018-12-26T03:04:47.136Z,-465.81
2018-12-26T03:05:47.246Z,-464.53
2018-12-26T03:06:47.324Z,-468.76
2018-12-26T03:07:47.438Z,-466.01
2018-12-26T03:08:47.539Z,-465.27
2018-12-26T03:09:47.763Z,-463.70
2018-12-26T03:10:47.728Z,-467.59
2018-12-26T03:11:47.805Z,-467.58
2018-12-26T03:12:47.881Z,-463.41
2018-12-26T03:13:47.999Z,-466.16
2018-12-26T03:14:48.082Z,-465.93
2018-12-26T03:15:48.194Z,-464.75
2018-12-26T03:16:48.262Z,-462.67
2018-12-26T03:17:48.474Z,-466.28
2018-12-26T03:18:48.472Z,-467.12
2018-12-26T03:19:48.573Z,-464.00
2018-12-26T03:20:48.681Z,-464.75
2018-12-26T03:21:48.759Z,-464.16
2018-12-26T03:22:48.843Z,-466.22
2018-12-26T03:23:48.983Z,-464.68
2018-12-26T03:24:49.054Z,-467.51
2018-12-26T03:25:49.264Z,-461.78
2018-12-26T03:26:56.074Z,-463.00
2018-12-26T03:27:50.316Z,-463.03
2018-12-26T03:28:49.435Z,-464.19
2018-12-26T03:29:49.509Z,-459.48
2018-12-26T03:30:49.638Z,-464.08
2018-12-26T03:31:49.715Z,-466.37
2018-12-26T03:32:49.811Z,-463.72
2018-12-26T03:33:49.959Z,-464.79
2018-12-26T03:34:49.957Z,-463.88
2018-12-26T03:35:50.090Z,-463.68
2018-12-26T03:36:50.165Z,-462.77
2018-12-26T03:37:50.256Z,-461.67
2018-12-26T03:38:50.485Z,-465.00
2018-12-26T03:39:50.471Z,-463.95
2018-12-26T03:40:50.545Z,-458.49
2018-12-26T03:41:50.665Z,-464.54
2018-12-26T03:42:50.868Z,-466.46
2018-12-26T03:43:50.860Z,-461.00
2018-12-26T03:44:50.944Z,-464.20
2018-12-26T03:45:51.045Z,-465.63
2018-12-26T03:46:51.106Z,-461.41
2018-12-26T03:47:51.215Z,-461.19
2018-12-26T03:48:51.326Z,-463.59
2018-12-26T03:49:51.422Z,-459.25
2018-12-26T03:50:51.811Z,-466.06
2018-12-26T03:51:51.574Z,-461.66
2018-12-26T03:52:51.691Z,-463.96
2018-12-26T03:53:51.784Z,-460.90
2018-12-26T03:54:51.874Z,-461.33
2018-12-26T03:55:51.974Z,-463.86
2018-12-26T03:56:52.030Z,-462.34
2018-12-26T03:57:52.130Z,-462.33
2018-12-26T03:58:52.326Z,-457.48
2018-12-26T03:59:52.334Z,-459.67
2018-12-26T04:00:52.435Z,-459.39
2018-12-26T04:01:52.495Z,-459.60
2018-12-26T04:02:52.602Z,-465.43
2018-12-26T04:03:52.706Z,-463.38
2018-12-26T04:04:53.016Z,-465.63
2018-12-26T04:05:52.896Z,-466.03
2018-12-26T04:06:53.012Z,-466.01
2018-12-26T04:07:53.026Z,-457.76
2018-12-26T04:08:53.162Z,-463.48
2018-12-26T04:09:53.245Z,-465.15
2018-12-26T04:10:53.346Z,-464.09
2018-12-26T04:11:53.421Z,-462.04
2018-12-26T04:12:53.514Z,-465.21
2018-12-26T04:13:53.609Z,-461.43
2018-12-26T04:14:53.775Z,-465.23
2018-12-26T04:15:53.910Z,-462.93
2018-12-26T04:16:53.999Z,-464.27
2018-12-26T04:17:54.097Z,-464.82
2018-12-26T04:18:54.220Z,-464.35
2018-12-26T04:19:54.319Z,-467.19
2018-12-26T04:20:54.421Z,-462.26
2018-12-26T04:21:54.507Z,-465.15
2018-12-26T04:22:54.639Z,-463.97
2018-12-26T04:23:54.789Z,-464.75
2018-12-26T04:24:54.826Z,-467.98
2018-12-26T04:25:54.931Z,-463.85
2018-12-26T04:26:55.010Z,-465.35
2018-12-26T04:27:55.109Z,-463.60
2018-12-26T04:28:55.230Z,-460.32
2018-12-26T04:29:55.326Z,-460.79
2018-12-26T04:30:55.427Z,-461.01
2018-12-26T04:31:55.601Z,-463.97
2018-12-26T04:32:55.613Z,-459.85
2018-12-26T04:33:55.729Z,-462.09
2018-12-26T04:34:55.806Z,-458.49
2018-12-26T04:35:55.918Z,-458.87
2018-12-26T04:36:56.015Z,-454.40
2018-12-26T04:37:56.133Z,-458.19
2018-12-26T04:38:56.263Z,-458.78
2018-12-26T04:39:56.404Z,-462.93
2018-12-26T04:40:56.430Z,-460.20
2018-12-26T04:41:56.519Z,-459.07
2018-12-26T04:42:56.638Z,-465.29
2018-12-26T04:43:56.752Z,-461.81
2018-12-26T04:44:56.834Z,-462.39
2018-12-26T04:45:56.961Z,-464.18
2018-12-26T04:46:57.050Z,-464.73
2018-12-26T04:47:57.386Z,-461.66
2018-12-26T04:48:57.195Z,-461.15
2018-12-26T04:49:57.235Z,-461.56
2018-12-26T04:50:57.352Z,-462.30
2018-12-26T04:51:57.448Z,-462.04
2018-12-26T04:52:57.539Z,-465.14
2018-12-26T04:53:57.655Z,-462.94
2018-12-26T04:54:57.710Z,-463.43
2018-12-26T04:55:57.894Z,-464.49
2018-12-26T04:56:58.024Z,-463.03
2018-12-26T04:57:58.092Z,-463.04
2018-12-26T04:58:58.230Z,-462.92
2018-12-26T04:59:58.301Z,-463.69
2018-12-26T05:00:58.394Z,-463.62
2018-12-26T05:01:58.531Z,-463.11
2018-12-26T05:02:58.601Z,-462.28
2018-12-26T05:03:58.761Z,-463.20
2018-12-26T05:04:58.852Z,-460.01
2018-12-26T05:05:58.899Z,-460.68
2018-12-26T05:06:59.015Z,-457.34
2018-12-26T05:07:59.099Z,-460.73
2018-12-26T05:08:59.222Z,-463.61
2018-12-26T05:09:59.283Z,-460.72
2018-12-26T05:10:59.402Z,-458.93
2018-12-26T05:11:59.526Z,-464.68
2018-12-26T05:12:59.722Z,-462.59
2018-12-26T05:13:59.726Z,-460.33
2018-12-26T05:14:59.790Z,-462.48
2018-12-26T05:15:59.920Z,-461.44
2018-12-26T05:17:00.028Z,-462.73
2018-12-26T05:18:00.112Z,-459.67
2018-12-26T05:19:00.219Z,-459.92
2018-12-26T05:20:00.335Z,-461.75
2018-12-26T05:21:00.489Z,-458.33
2018-12-26T05:22:00.509Z,-460.63
2018-12-26T05:23:00.596Z,-461.84
2018-12-26T05:24:01.108Z,-462.91
2018-12-26T05:25:00.795Z,-459.29
2018-12-26T05:26:00.896Z,-457.98
2018-12-26T05:27:01.010Z,-460.18
2018-12-26T05:28:01.078Z,-462.03
2018-12-26T05:29:01.278Z,-463.33
2018-12-26T05:30:01.280Z,-461.01
2018-12-26T05:31:01.380Z,-461.33
2018-12-26T05:32:01.494Z,-457.51
2018-12-26T05:33:01.573Z,-460.98
2018-12-26T05:34:01.699Z,-460.00
2018-12-26T05:35:01.780Z,-462.17
2018-12-26T05:36:01.883Z,-431.91
2018-12-26T05:37:02.042Z,-435.67
2018-12-26T05:38:02.123Z,-438.45
2018-12-26T05:39:02.184Z,-435.23
2018-12-26T05:40:02.280Z,-437.16
2018-12-26T05:41:02.380Z,-437.21
2018-12-26T05:42:02.496Z,-439.63
2018-12-26T05:43:02.573Z,-437.99
2018-12-26T05:44:02.696Z,-438.05
2018-12-26T05:45:02.791Z,-431.90
2018-12-26T05:46:03.259Z,-443.41
2018-12-26T05:47:03.012Z,-432.11
2018-12-26T05:48:03.094Z,-428.40
2018-12-26T05:49:03.218Z,-435.24
2018-12-26T05:50:03.293Z,-443.00
2018-12-26T05:51:03.388Z,-439.32
2018-12-26T05:52:03.521Z,-430.02
2018-12-26T05:53:03.602Z,-442.21
2018-12-26T05:54:03.821Z,-433.63
2018-12-26T05:55:03.802Z,-439.20
2018-12-26T05:56:03.884Z,-432.95
2018-12-26T05:57:04.024Z,-439.90
2018-12-26T05:58:04.091Z,-431.49
2018-12-26T05:59:04.198Z,-433.35
2018-12-26T06:00:04.315Z,-437.20
2018-12-26T06:01:04.397Z,-435.25
2018-12-26T06:02:04.581Z,-434.04
2018-12-26T06:03:04.577Z,-439.30
2018-12-26T06:04:04.709Z,-432.89
2018-12-26T06:05:04.801Z,-431.32
2018-12-26T06:06:04.883Z,-434.11
2018-12-26T06:07:05.011Z,-441.03
2018-12-26T06:08:05.067Z,-440.39
2018-12-26T06:09:05.463Z,-432.98
2018-12-26T06:10:05.365Z,-432.67
2018-12-26T06:11:05.373Z,-430.61
2018-12-26T06:12:05.496Z,-431.08
2018-12-26T06:13:05.586Z,-431.19
2018-12-26T06:14:05.700Z,-440.14
2018-12-26T06:15:05.805Z,-438.19
2018-12-26T06:16:05.889Z,-429.22
2018-12-26T06:17:06.007Z,-431.54
2018-12-26T06:18:08.266Z,-430.32
2018-12-26T06:19:06.275Z,-436.72
2018-12-26T06:20:06.330Z,-439.16
2018-12-26T06:21:06.379Z,-432.56
2018-12-26T06:22:06.495Z,-439.93
2018-12-26T06:23:06.585Z,-439.41
2018-12-26T06:24:06.684Z,-441.57
2018-12-26T06:25:06.813Z,-431.10
2018-12-26T06:26:06.870Z,-440.88
2018-12-26T06:27:07.111Z,-434.70
2018-12-26T06:28:07.082Z,-431.36
2018-12-26T06:29:07.176Z,-432.23
2018-12-26T06:30:07.302Z,-437.84
2018-12-26T06:31:07.426Z,-433.75
2018-12-26T06:32:07.495Z,-435.72
2018-12-26T06:33:07.578Z,-431.73
2018-12-26T06:34:07.679Z,-439.39
2018-12-26T06:35:07.898Z,-438.41
2018-12-26T06:36:07.846Z,-431.95
2018-12-26T06:37:07.982Z,-439.95
2018-12-26T06:38:08.080Z,-431.51
2018-12-26T06:39:08.180Z,-438.37
2018-12-26T06:40:08.323Z,-435.59
2018-12-26T06:41:08.380Z,-430.24
2018-12-26T06:42:08.495Z,-435.50
2018-12-26T06:43:08.586Z,-440.47
2018-12-26T06:44:08.658Z,-439.45
2018-12-26T06:45:08.812Z,-439.37
2018-12-26T06:46:08.868Z,-431.57
2018-12-26T06:47:08.966Z,-430.39
2018-12-26T06:48:09.059Z,-434.64
2018-12-26T06:49:09.143Z,-436.32
2018-12-26T06:50:09.293Z,-439.89
2018-12-26T06:51:09.453Z,-440.69
2018-12-26T06:52:09.501Z,-430.37
2018-12-26T06:53:09.608Z,-432.30
2018-12-26T06:54:09.673Z,-440.75
2018-12-26T06:55:09.799Z,-433.08
2018-12-26T06:56:09.899Z,-435.91
2018-12-26T06:57:10.000Z,-440.28
2018-12-26T06:58:10.144Z,-435.35
2018-12-26T06:59:10.207Z,-436.04
2018-12-26T07:00:10.415Z,-436.67
2018-12-26T07:01:10.394Z,-435.55
2018-12-26T07:02:10.493Z,-436.36
2018-12-26T07:03:10.610Z,-433.36
2018-12-26T07:04:10.692Z,-439.35
2018-12-26T07:05:10.835Z,-438.76
2018-12-26T07:06:10.870Z,-442.17
2018-12-26T07:07:10.988Z,-428.46
2018-12-26T07:08:11.240Z,-435.01
2018-12-26T07:09:11.208Z,-434.43
2018-12-26T07:10:11.337Z,-441.35
2018-12-26T07:11:11.393Z,-435.28
2018-12-26T07:12:11.509Z,-426.80
2018-12-26T07:13:11.628Z,-430.84
2018-12-26T07:14:11.717Z,-432.74
2018-12-26T07:15:11.826Z,-433.31
2018-12-26T07:16:11.935Z,-433.40
2018-12-26T07:17:11.973Z,-433.45
2018-12-26T07:18:12.112Z,-438.76
2018-12-26T07:19:12.205Z,-428.69
2018-12-26T07:20:12.311Z,-439.06
2018-12-26T07:21:12.487Z,-433.07
2018-12-26T07:22:12.500Z,-439.96
2018-12-26T07:23:12.612Z,-438.16
2018-12-26T07:24:12.761Z,-440.73
2018-12-26T07:25:13.012Z,-440.35
2018-12-26T07:26:12.876Z,-440.07
2018-12-26T07:27:12.979Z,-431.76
2018-12-26T07:28:13.098Z,-460.52
2018-12-26T07:29:13.212Z,-460.06
2018-12-26T07:30:13.290Z,-462.32
2018-12-26T07:31:13.383Z,-461.53
2018-12-26T07:32:13.522Z,-458.97
2018-12-26T07:33:13.682Z,-459.52
2018-12-26T07:34:13.728Z,-459.72
2018-12-26T07:35:13.806Z,-460.25
2018-12-26T07:36:13.883Z,-457.54
2018-12-26T07:37:14.001Z,-462.47
2018-12-26T07:38:14.116Z,-458.50
2018-12-26T07:39:14.211Z,-463.61
2018-12-26T07:40:16.129Z,-457.66
2018-12-26T07:41:14.506Z,-458.57
2018-12-26T07:42:14.505Z,-460.02
2018-12-26T07:43:14.620Z,-461.71
2018-12-26T07:44:14.698Z,-458.58
2018-12-26T07:45:14.823Z,-461.74
2018-12-26T07:46:14.889Z,-460.77
2018-12-26T07:47:14.986Z,-460.91
2018-12-26T07:48:15.125Z,-460.30
2018-12-26T07:49:15.256Z,-461.01
2018-12-26T07:50:15.315Z,-461.17
2018-12-26T07:51:15.397Z,-460.26
2018-12-26T07:52:15.480Z,-460.68
2018-12-26T07:53:15.613Z,-458.42
2018-12-26T07:54:15.713Z,-456.43
2018-12-26T07:55:15.819Z,-459.99
2018-12-26T07:56:15.935Z,-458.69
2018-12-26T07:57:16.098Z,-458.35
2018-12-26T07:58:17.687Z,-462.21
2018-12-26T07:59:16.223Z,-458.87
2018-12-26T08:00:16.370Z,-459.53
2018-12-26T08:01:16.483Z,-461.03
2018-12-26T08:02:16.558Z,-460.85
2018-12-26T08:03:16.677Z,-458.57
2018-12-26T08:04:16.772Z,-462.51
2018-12-26T08:05:16.863Z,-463.13
2018-12-26T08:06:17.006Z,-462.74
2018-12-26T08:07:17.082Z,-462.42
2018-12-26T08:08:17.191Z,-459.01
2018-12-26T08:09:17.276Z,-459.62
2018-12-26T08:10:17.373Z,-461.93
2018-12-26T08:11:17.499Z,-461.26
2018-12-26T08:12:17.574Z,-463.46
2018-12-26T08:13:17.729Z,-458.35
2018-12-26T08:14:17.905Z,-463.76
2018-12-26T08:15:17.912Z,-462.25
2018-12-26T08:16:17.985Z,-458.17
2018-12-26T08:17:18.084Z,-460.84
2018-12-26T08:18:18.200Z,-460.67
2018-12-26T08:19:18.284Z,-459.16
2018-12-26T08:20:18.408Z,-462.16
2018-12-26T08:21:18.507Z,-463.37
2018-12-26T08:22:18.651Z,-457.49
2018-12-26T08:23:18.758Z,-458.84
2018-12-26T08:24:18.774Z,-461.22
2018-12-26T08:25:18.902Z,-459.32
2018-12-26T08:26:18.988Z,-460.96
2018-12-26T08:27:19.060Z,-457.27
2018-12-26T08:28:26.333Z,-454.78
2018-12-26T08:29:20.292Z,-462.06
2018-12-26T08:30:19.500Z,-462.75
2018-12-26T08:31:19.501Z,-462.72
2018-12-26T08:32:19.581Z,-459.32
2018-12-26T08:33:19.686Z,-431.50
2018-12-26T08:34:19.780Z,-439.53
2018-12-26T08:35:19.898Z,-435.45
2018-12-26T08:36:19.998Z,-429.40
2018-12-26T08:37:20.079Z,-459.13
2018-12-26T08:38:20.245Z,-458.40
2018-12-26T08:39:20.242Z,-464.14
2018-12-26T08:40:20.377Z,-458.87
2018-12-26T08:41:20.509Z,-461.40
2018-12-26T08:42:20.579Z,-462.23
2018-12-26T08:43:20.697Z,-461.06
2018-12-26T08:44:20.788Z,-455.21
2018-12-26T08:45:20.900Z,-458.44
2018-12-26T08:46:21.037Z,-458.33
2018-12-26T08:47:21.124Z,-461.24
2018-12-26T08:48:21.228Z,-457.64
2018-12-26T08:49:21.285Z,-459.83
2018-12-26T08:50:21.388Z,-462.16
2018-12-26T08:51:21.511Z,-461.26
2018-12-26T08:52:21.583Z,-459.59
2018-12-26T08:53:21.716Z,-458.51
2018-12-26T08:54:21.849Z,-457.67
2018-12-26T08:55:22.018Z,-462.48
2018-12-26T08:56:22.001Z,-457.88
2018-12-26T08:57:22.098Z,-462.26
2018-12-26T08:58:22.198Z,-456.88
2018-12-26T08:59:22.302Z,-460.45
2018-12-26T09:00:22.427Z,-456.75
2018-12-26T09:01:22.512Z,-454.91
2018-12-26T09:02:22.577Z,-456.06
2018-12-26T09:03:22.820Z,-460.02
2018-12-26T09:04:22.815Z,-461.64
2018-12-26T09:05:22.946Z,-459.53
2018-12-26T09:06:23.058Z,-459.83
2018-12-26T09:07:23.110Z,-458.57
2018-12-26T09:08:23.204Z,-462.99
2018-12-26T09:09:23.344Z,-463.35
2018-12-26T09:10:23.546Z,-456.87
2018-12-26T09:11:23.639Z,-459.55
2018-12-26T09:12:23.618Z,-461.63
2018-12-26T09:13:23.712Z,-456.12
2018-12-26T09:14:23.821Z,-457.19
2018-12-26T09:15:23.976Z,-461.55
2018-12-26T09:16:24.031Z,-460.11
2018-12-26T09:17:24.121Z,-460.35
2018-12-26T09:18:24.222Z,-460.13
2018-12-26T09:19:24.446Z,-458.95
2018-12-26T09:20:24.385Z,-458.63
2018-12-26T09:21:24.525Z,-457.53
2018-12-26T09:22:24.603Z,-459.09
2018-12-26T09:23:24.703Z,-462.14
2018-12-26T09:24:24.851Z,-463.41
2018-12-26T09:25:24.913Z,-459.84
2018-12-26T09:26:25.003Z,-459.04
2018-12-26T09:27:25.139Z,-460.84
2018-12-26T09:28:25.258Z,-458.30
2018-12-26T09:29:25.372Z,-456.66
2018-12-26T09:30:25.413Z,-457.38
2018-12-26T09:31:25.528Z,-458.16
2018-12-26T09:32:25.628Z,-458.64
2018-12-26T09:33:25.736Z,-460.79
2018-12-26T09:34:25.878Z,-458.71
2018-12-26T09:35:25.959Z,-459.93
2018-12-26T09:36:26.200Z,-458.47
2018-12-26T09:37:26.143Z,-457.71
2018-12-26T09:38:26.235Z,-462.01
2018-12-26T09:39:26.387Z,-461.18
2018-12-26T09:40:26.441Z,-460.57
2018-12-26T09:41:26.562Z,-462.24
2018-12-26T09:42:26.621Z,-458.41
2018-12-26T09:43:26.721Z,-458.12
2018-12-26T09:44:27.009Z,-456.82
2018-12-26T09:45:26.955Z,-458.83
2018-12-26T09:46:27.055Z,-457.65
2018-12-26T09:47:27.143Z,-457.31
2018-12-26T09:48:27.211Z,-458.02
2018-12-26T09:49:27.355Z,-453.86
2018-12-26T09:50:27.437Z,-462.38
2018-12-26T09:51:27.554Z,-465.62
2018-12-26T09:52:27.697Z,-460.14
2018-12-26T09:53:27.702Z,-460.56
2018-12-26T09:54:28.097Z,-463.31
2018-12-26T09:55:27.927Z,-456.50
2018-12-26T09:56:28.043Z,-460.56
2018-12-26T09:57:28.130Z,-463.62
2018-12-26T09:58:28.228Z,-465.54
2018-12-26T09:59:28.371Z,-466.37
2018-12-26T10:00:28.472Z,-456.43
2018-12-26T10:01:28.522Z,-457.22
2018-12-26T10:02:28.610Z,-463.37
2018-12-26T10:03:28.709Z,-455.30
2018-12-26T10:04:28.830Z,-453.84
2018-12-26T10:05:28.940Z,-463.13
2018-12-26T10:06:29.069Z,-458.23
2018-12-26T10:07:29.124Z,-452.39
2018-12-26T10:08:29.277Z,-459.94
2018-12-26T10:09:29.407Z,-461.48
2018-12-26T10:10:29.441Z,-457.93
2018-12-26T10:11:29.515Z,-456.66
2018-12-26T10:12:29.645Z,-459.24
2018-12-26T10:13:29.773Z,-459.97
2018-12-26T10:14:29.886Z,-459.32
2018-12-26T10:15:29.966Z,-462.72
2018-12-26T10:16:30.069Z,-460.51
2018-12-26T10:17:30.319Z,-456.85
2018-12-26T10:18:30.282Z,-461.34
2018-12-26T10:19:30.397Z,-459.69
2018-12-26T10:20:30.476Z,-459.48
2018-12-26T10:21:30.572Z,-463.43
2018-12-26T10:22:30.695Z,-461.99
2018-12-26T10:23:30.776Z,-460.15
2018-12-26T10:24:30.918Z,-459.11
2018-12-26T10:25:31.042Z,-457.53
2018-12-26T10:26:31.071Z,-460.39
2018-12-26T10:27:31.190Z,-457.24
2018-12-26T10:28:31.284Z,-459.81
2018-12-26T10:29:31.389Z,-460.08
2018-12-26T10:30:31.473Z,-467.37
2018-12-26T10:31:31.574Z,-459.08
2018-12-26T10:32:31.691Z,-463.29
2018-12-26T10:33:31.837Z,-463.36
2018-12-26T10:34:31.856Z,-460.35
2018-12-26T10:35:31.962Z,-462.73
2018-12-26T10:36:32.078Z,-460.82
2018-12-26T10:37:32.196Z,-458.66
2018-12-26T10:38:32.286Z,-454.17
2018-12-26T10:39:32.610Z,-464.09
2018-12-26T10:40:32.479Z,-457.67
2018-12-26T10:41:32.589Z,-454.88
2018-12-26T10:42:32.682Z,-455.92
2018-12-26T10:43:32.807Z,-468.46
2018-12-26T10:44:32.897Z,-457.72
2018-12-26T10:45:32.972Z,-461.15
2018-12-26T10:46:33.079Z,-458.44
2018-12-26T10:47:33.208Z,-457.60
2018-12-26T10:48:33.273Z,-460.75
2018-12-26T10:49:33.411Z,-461.77
2018-12-26T10:50:33.602Z,-459.06
2018-12-26T10:51:33.576Z,-460.23
2018-12-26T10:52:33.687Z,-456.31
2018-12-26T10:53:33.777Z,-458.43
2018-12-26T10:54:33.923Z,-455.34
2018-12-26T10:55:33.992Z,-455.00
2018-12-26T10:56:34.096Z,-466.63
2018-12-26T10:57:34.211Z,-460.72
2018-12-26T10:58:34.418Z,-458.86
2018-12-26T10:59:34.429Z,-460.98
2018-12-26T11:00:34.495Z,-459.20
2018-12-26T11:01:34.600Z,-457.12
2018-12-26T11:02:34.740Z,-458.37
2018-12-26T11:03:34.790Z,-459.48
2018-12-26T11:04:34.915Z,-458.30
2018-12-26T11:05:35.004Z,-458.01
2018-12-26T11:06:35.146Z,-463.10
2018-12-26T11:07:35.217Z,-464.65
2018-12-26T11:08:35.298Z,-460.66
2018-12-26T11:09:35.389Z,-462.02
2018-12-26T11:10:35.501Z,-460.04
2018-12-26T11:11:35.612Z,-462.79
2018-12-26T11:12:35.726Z,-459.95
2018-12-26T11:13:35.820Z,-461.26
2018-12-26T11:14:36.012Z,-460.50
2018-12-26T11:15:35.976Z,-461.55
2018-12-26T11:16:36.085Z,-457.23
2018-12-26T11:17:36.254Z,-462.70
2018-12-26T11:18:36.296Z,-459.46
2018-12-26T11:19:36.399Z,-458.45
2018-12-26T11:20:36.515Z,-462.82
2018-12-26T11:21:36.615Z,-458.84
2018-12-26T11:22:36.785Z,-457.98
2018-12-26T11:23:36.888Z,-458.32
2018-12-26T11:24:36.918Z,-461.28
2018-12-26T11:25:37.035Z,-458.25
2018-12-26T11:26:37.116Z,-462.04
2018-12-26T11:27:37.236Z,-461.69
2018-12-26T11:28:37.299Z,-457.29
2018-12-26T11:29:37.417Z,-457.53
2018-12-26T11:30:37.566Z,-454.96
2018-12-26T11:31:37.748Z,-460.33
2018-12-26T11:32:37.744Z,-459.04
2018-12-26T11:33:37.818Z,-458.78
2018-12-26T11:34:37.934Z,-456.82
2018-12-26T11:35:38.053Z,-461.06
2018-12-26T11:36:38.134Z,-458.26
2018-12-26T11:37:38.282Z,-463.88
2018-12-26T11:38:38.341Z,-459.29
2018-12-26T11:39:38.531Z,-461.52
2018-12-26T11:40:38.548Z,-462.67
2018-12-26T11:41:38.635Z,-457.28
2018-12-26T11:42:38.761Z,-461.03
2018-12-26T11:43:38.835Z,-463.59
2018-12-26T11:44:38.919Z,-461.48
2018-12-26T11:45:39.060Z,-460.35
2018-12-26T11:46:39.138Z,-459.21
2018-12-26T11:47:39.307Z,-461.81
2018-12-26T11:48:39.318Z,-457.07
2018-12-26T11:49:39.411Z,-461.45
2018-12-26T11:50:39.534Z,-457.48
2018-12-26T11:51:39.625Z,-460.14
2018-12-26T11:52:39.741Z,-460.26
2018-12-26T11:53:39.829Z,-457.29
2018-12-26T11:54:39.926Z,-457.74
2018-12-26T11:55:40.146Z,-458.73
2018-12-26T11:56:40.090Z,-458.33
2018-12-26T11:57:40.229Z,-463.04
2018-12-26T11:58:40.310Z,-454.75
2018-12-26T11:59:40.417Z,-458.41
2018-12-26T12:00:40.567Z,-461.99
2018-12-26T12:01:40.613Z,-458.80
2018-12-26T12:02:40.723Z,-463.81
2018-12-26T12:03:40.874Z,-457.18
2018-12-26T12:04:40.995Z,-463.26
2018-12-26T12:05:41.039Z,-464.53
2018-12-26T12:06:41.120Z,-462.61
2018-12-26T12:07:41.238Z,-458.78